createdAt,value
2022-08-27T00:04:16.479Z,100
2022-08-27T00:09:19.089Z,100
2022-08-27T00:14:19.822Z,100
2022-08-27T00:19:21.945Z,100
2022-08-27T00:24:23.236Z,100
2022-08-27T00:29:25.015Z,100
2022-08-27T00:34:26.877Z,100
2022-08-27T00:39:28.033Z,100
2022-08-27T00:44:29.601Z,100
2022-08-27T00:49:31.307Z,100
2022-08-27T00:54:32.905Z,100
2022-08-27T00:59:34.620Z,100
2022-08-27T01:04:36.075Z,100
2022-08-27T01:09:37.567Z,100
2022-08-27T01:14:39.633Z,100
2022-08-27T01:19:41.680Z,100
2022-08-27T01:24:44.058Z,100
2022-08-27T01:29:45.593Z,100
2022-08-27T01:34:47.009Z,100
2022-08-27T01:39:48.518Z,100
2022-08-27T01:44:50.513Z,100
2022-08-27T01:49:52.224Z,100
2022-08-27T01:54:54.126Z,100
2022-08-27T01:59:55.668Z,100
2022-08-27T02:04:57.495Z,100
2022-08-27T02:09:58.836Z,100
2022-08-27T02:15:00.829Z,100
2022-08-27T02:20:03.003Z,100
2022-08-27T02:25:04.463Z,100
2022-08-27T02:30:05.794Z,100
2022-08-27T02:35:07.954Z,100
2022-08-27T02:40:09.401Z,100
2022-08-27T02:45:11.230Z,100
2022-08-27T02:50:12.729Z,100
2022-08-27T02:55:14.338Z,100
2022-08-27T03:00:16.110Z,100
2022-08-27T03:05:17.928Z,100
2022-08-27T03:10:19.246Z,100
2022-08-27T03:15:20.769Z,100
2022-08-27T03:20:22.259Z,100
2022-08-27T03:25:24.351Z,100
2022-08-27T03:30:25.735Z,100
2022-08-27T03:35:27.877Z,100
2022-08-27T03:40:29.828Z,100
2022-08-27T03:45:31.064Z,100
2022-08-27T03:50:33.030Z,100
2022-08-27T03:55:34.896Z,100
2022-08-27T04:00:36.445Z,100
2022-08-27T04:05:37.653Z,100
2022-08-27T04:10:39.707Z,100
2022-08-27T04:15:41.134Z,100
2022-08-27T04:20:42.587Z,100
2022-08-27T04:25:44.068Z,100
2022-08-27T04:30:46.313Z,100
2022-08-27T04:35:48.240Z,100
2022-08-27T04:40:49.372Z,100
2022-08-27T04:45:51.477Z,100
2022-08-27T04:50:52.811Z,100
2022-08-27T04:55:54.084Z,100
2022-08-27T05:00:55.360Z,100
2022-08-27T05:05:57.129Z,100
2022-08-27T05:10:58.866Z,100
2022-08-27T05:16:00.845Z,100
2022-08-27T05:21:02.862Z,100
2022-08-27T05:26:04.119Z,100
2022-08-27T05:31:06.314Z,100
2022-08-27T05:36:08.215Z,100
2022-08-27T05:41:09.987Z,100
2022-08-27T05:46:11.936Z,100
2022-08-27T05:51:13.156Z,100
2022-08-27T05:56:14.352Z,100
2022-08-27T06:01:15.740Z,100
2022-08-27T06:06:17.020Z,100
2022-08-27T06:11:19.184Z,100
2022-08-27T06:16:20.597Z,100
2022-08-27T06:21:24.567Z,100
2022-08-27T06:26:24.223Z,100
2022-08-27T06:31:26.394Z,100
2022-08-27T06:36:28.339Z,100
2022-08-27T06:46:31.576Z,100
2022-08-27T06:51:33.324Z,100
2022-08-27T06:56:35.403Z,100
2022-08-27T07:01:36.979Z,100
2022-08-27T07:06:38.602Z,100
2022-08-27T07:11:40.750Z,100
2022-08-27T07:16:42.309Z,100
2022-08-27T07:21:44.008Z,100
2022-08-27T07:26:45.390Z,100
2022-08-27T07:31:47.519Z,100
2022-08-27T07:36:48.995Z,100
2022-08-27T07:41:50.953Z,100
2022-08-27T07:46:52.408Z,100
2022-08-27T07:51:54.416Z,100
2022-08-27T07:56:56.286Z,100
2022-08-27T08:01:58.177Z,100
2022-08-27T08:07:00.048Z,100
2022-08-27T08:12:01.544Z,100
2022-08-27T08:17:03.540Z,100
2022-08-27T08:22:06.118Z,100
2022-08-27T08:27:07.790Z,100
2022-08-27T08:32:08.536Z,100
2022-08-27T08:37:10.624Z,100
2022-08-27T08:42:11.811Z,100
2022-08-27T08:47:13.751Z,100
2022-08-27T08:52:31.072Z,100
2022-08-27T08:57:18.738Z,100
2022-08-27T09:02:18.359Z,100
2022-08-27T09:07:19.743Z,100
2022-08-27T09:12:20.905Z,100
2022-08-27T09:17:22.323Z,100
2022-08-27T09:22:23.603Z,100
2022-08-27T09:27:25.135Z,100
2022-08-27T09:32:26.887Z,100
2022-08-27T09:37:34.366Z,100
2022-08-27T09:42:30.265Z,100
2022-08-27T09:47:32.422Z,100
2022-08-27T09:52:36.578Z,100
2022-08-27T09:57:35.735Z,100
2022-08-27T10:02:37.151Z,100
2022-08-27T10:07:38.573Z,100
2022-08-27T10:12:40.340Z,100
2022-08-27T10:17:41.894Z,100
2022-08-27T10:22:43.914Z,100
2022-08-27T10:27:46.077Z,100
2022-08-27T10:32:51.812Z,100
2022-08-27T10:37:49.988Z,100
2022-08-27T10:42:52.102Z,100
2022-08-27T10:47:52.875Z,100
2022-08-27T10:52:54.974Z,100
2022-08-27T10:58:00.775Z,99
2022-08-27T11:02:57.475Z,99
2022-08-27T11:07:58.808Z,91
2022-08-27T11:13:00.893Z,92
2022-08-27T11:18:02.215Z,89
2022-08-27T11:23:04.275Z,84
2022-08-27T11:28:06.385Z,85
2022-08-27T11:53:14.636Z,77
2022-08-27T11:58:16.526Z,77
2022-08-27T12:13:21.224Z,76
2022-08-27T12:18:23.059Z,72
2022-08-27T12:23:25.209Z,67
2022-08-27T12:28:27.082Z,68
2022-08-27T12:33:28.735Z,66
2022-08-27T12:38:30.584Z,71
2022-08-27T12:48:34.587Z,67
2022-08-27T12:53:35.822Z,69
2022-08-27T12:58:37.351Z,71
2022-08-27T13:03:39.353Z,69
2022-08-27T13:08:40.659Z,69
2022-08-27T13:13:42.567Z,71
2022-08-27T13:18:43.847Z,73
2022-08-27T13:23:45.427Z,64
2022-08-27T13:28:46.810Z,60
2022-08-27T13:33:48.404Z,66
2022-08-27T13:38:50.493Z,66
2022-08-27T13:43:54.785Z,65
2022-08-27T13:48:54.176Z,62
2022-08-27T13:53:55.849Z,59
2022-08-27T13:58:57.254Z,63
2022-08-27T14:03:59.147Z,64
2022-08-27T14:09:00.465Z,64
2022-08-27T14:14:11.675Z,58
2022-08-27T14:19:04.019Z,61
2022-08-27T14:24:05.767Z,61
2022-08-27T14:29:13.655Z,64
2022-08-27T14:34:15.584Z,64
2022-08-27T14:39:17.670Z,62
2022-08-27T14:44:19.805Z,66
2022-08-27T14:49:21.000Z,69
2022-08-27T14:54:22.838Z,68
2022-08-27T14:59:24.510Z,68
2022-08-27T15:04:26.046Z,70
2022-08-27T15:09:27.698Z,70
2022-08-27T15:14:29.241Z,67
2022-08-27T15:19:30.654Z,68
2022-08-27T15:24:32.304Z,68
2022-08-27T15:29:33.755Z,68
2022-08-27T15:34:35.447Z,71
2022-08-27T15:39:36.580Z,71
2022-08-27T15:44:38.656Z,71
2022-08-27T15:49:39.953Z,71
2022-08-27T15:54:42.044Z,70
2022-08-27T15:59:43.751Z,71
2022-08-27T16:04:47.740Z,70
2022-08-27T16:09:46.923Z,70
2022-08-27T16:14:48.156Z,74
2022-08-27T16:19:49.682Z,74
2022-08-27T16:24:51.256Z,75
2022-08-27T16:29:52.699Z,72
2022-08-27T16:34:55.713Z,68
2022-08-27T16:39:56.870Z,67
2022-08-27T16:44:58.511Z,66
2022-08-27T16:50:00.210Z,68
2022-08-27T16:55:02.276Z,70
2022-08-27T17:00:03.837Z,72
2022-08-27T17:05:23.971Z,75
2022-08-27T17:10:06.365Z,74
2022-08-27T17:15:08.048Z,76
2022-08-27T17:20:10.127Z,79
2022-08-27T17:25:11.956Z,81
2022-08-27T17:30:13.412Z,83
2022-08-27T17:35:15.571Z,85
2022-08-27T17:40:17.635Z,83
2022-08-27T17:45:19.705Z,84
2022-08-27T17:50:21.252Z,87
2022-08-27T17:55:22.634Z,89
2022-08-27T18:00:24.395Z,90
2022-08-27T18:05:26.455Z,91
2022-08-27T18:10:27.638Z,95
2022-08-27T18:15:28.909Z,93
2022-08-27T18:20:30.404Z,94
2022-08-27T18:25:35.891Z,96
2022-08-27T18:30:33.029Z,100
2022-08-27T18:35:34.436Z,100
2022-08-27T18:40:36.294Z,100
2022-08-27T18:45:37.784Z,100
2022-08-27T18:50:39.752Z,100
2022-08-27T18:55:41.239Z,100
2022-08-27T19:00:43.010Z,100
2022-08-27T19:05:44.423Z,100
2022-08-27T19:10:45.688Z,100
2022-08-27T19:15:47.034Z,100
2022-08-27T19:20:48.362Z,100
2022-08-27T19:25:49.610Z,100
2022-08-27T19:30:50.922Z,100
2022-08-27T19:35:52.841Z,100
2022-08-27T19:40:54.248Z,100
2022-08-27T19:45:56.060Z,100
2022-08-27T19:50:57.752Z,100
2022-08-27T19:55:58.947Z,100
2022-08-27T20:01:00.582Z,100
2022-08-27T20:06:02.758Z,100
2022-08-27T20:11:04.131Z,100
2022-08-27T20:16:06.159Z,100
2022-08-27T20:21:08.316Z,100
2022-08-27T20:26:09.772Z,100
2022-08-27T20:31:11.178Z,100
2022-08-27T20:36:13.290Z,100
2022-08-27T20:41:14.679Z,100
2022-08-27T20:46:16.088Z,100
2022-08-27T20:51:17.639Z,100
2022-08-27T20:56:19.608Z,100
2022-08-27T21:01:21.090Z,100
2022-08-27T21:06:26.272Z,100
2022-08-27T21:11:23.982Z,100
2022-08-27T21:16:26.010Z,100
2022-08-27T21:21:28.106Z,100
2022-08-27T21:26:29.602Z,100
2022-08-27T21:31:31.323Z,100
2022-08-27T21:36:33.117Z,100
2022-08-27T21:41:37.385Z,100
2022-08-27T21:46:36.039Z,100
2022-08-27T21:51:37.724Z,100
2022-08-27T21:56:39.423Z,100
2022-08-27T22:16:45.532Z,100
2022-08-27T22:21:47.598Z,100
2022-08-27T22:26:49.303Z,100
2022-08-27T22:31:51.027Z,100
2022-08-27T22:36:52.284Z,100
2022-08-27T22:41:54.034Z,100
2022-08-27T22:46:55.465Z,100
2022-08-27T22:51:56.722Z,100
2022-08-27T22:56:57.992Z,100
2022-08-27T23:01:59.438Z,100
2022-08-27T23:07:01.550Z,100
2022-08-27T23:12:02.877Z,100
2022-08-27T23:17:04.658Z,100
2022-08-27T23:22:07.062Z,100
2022-08-27T23:27:07.789Z,100
2022-08-27T23:32:09.025Z,100
2022-08-27T23:37:10.653Z,100
2022-08-27T23:42:12.237Z,100
2022-08-27T23:47:13.746Z,100
2022-08-27T23:52:14.951Z,100
2022-08-27T23:57:16.537Z,100
